sensor_id;sensor_type;location;lat;lon;timestamp;P1;durP1;ratioP1;P2;durP2;ratioP2
83471;SDS011;74051;47.120;18.370;2024-01-11T00:00:09;48.67;;;18.98;;
83471;SDS011;74051;47.120;18.370;2024-01-11T00:02:35;43.22;;;19.15;;
83471;SDS011;74051;47.120;18.370;2024-01-11T00:05:02;54.28;;;20.45;;
83471;SDS011;74051;47.120;18.370;2024-01-11T00:07:29;42.25;;;18.73;;
83471;SDS011;74051;47.120;18.370;2024-01-11T00:09:55;45.72;;;18.17;;
83471;SDS011;74051;47.120;18.370;2024-01-11T00:12:22;50.85;;;20.50;;
83471;SDS011;74051;47.120;18.370;2024-01-11T00:14:48;49.30;;;19.13;;
83471;SDS011;74051;47.120;18.370;2024-01-11T00:17:15;51.13;;;22.77;;
83471;SDS011;74051;47.120;18.370;2024-01-11T00:19:42;46.00;;;18.63;;
83471;SDS011;74051;47.120;18.370;2024-01-11T00:22:08;52.05;;;21.27;;
83471;SDS011;74051;47.120;18.370;2024-01-11T00:24:35;40.72;;;17.13;;
83471;SDS011;74051;47.120;18.370;2024-01-11T00:27:01;47.63;;;19.75;;
83471;SDS011;74051;47.120;18.370;2024-01-11T00:29:28;49.85;;;19.17;;
83471;SDS011;74051;47.120;18.370;2024-01-11T00:31:54;50.40;;;20.83;;
83471;SDS011;74051;47.120;18.370;2024-01-11T00:34:21;46.90;;;18.50;;
83471;SDS011;74051;47.120;18.370;2024-01-11T00:36:48;48.42;;;19.13;;
83471;SDS011;74051;47.120;18.370;2024-01-11T00:39:14;51.65;;;20.55;;
83471;SDS011;74051;47.120;18.370;2024-01-11T00:41:41;50.53;;;18.83;;
83471;SDS011;74051;47.120;18.370;2024-01-11T00:44:07;46.25;;;18.60;;
83471;SDS011;74051;47.120;18.370;2024-01-11T00:46:34;51.75;;;19.70;;
83471;SDS011;74051;47.120;18.370;2024-01-11T00:49:01;43.60;;;16.88;;
83471;SDS011;74051;47.120;18.370;2024-01-11T00:51:27;51.45;;;19.55;;
83471;SDS011;74051;47.120;18.370;2024-01-11T00:53:54;49.88;;;18.95;;
83471;SDS011;74051;47.120;18.370;2024-01-11T00:56:21;48.35;;;20.65;;
83471;SDS011;74051;47.120;18.370;2024-01-11T00:58:47;45.70;;;19.52;;
83471;SDS011;74051;47.120;18.370;2024-01-11T01:01:14;46.05;;;18.13;;
83471;SDS011;74051;47.120;18.370;2024-01-11T01:03:41;54.90;;;20.15;;
83471;SDS011;74051;47.120;18.370;2024-01-11T01:06:07;51.20;;;21.95;;
83471;SDS011;74051;47.120;18.370;2024-01-11T01:08:34;51.58;;;20.10;;
83471;SDS011;74051;47.120;18.370;2024-01-11T01:11:00;48.30;;;19.52;;
83471;SDS011;74051;47.120;18.370;2024-01-11T01:13:26;45.55;;;20.73;;
83471;SDS011;74051;47.120;18.370;2024-01-11T01:15:53;49.45;;;21.08;;
83471;SDS011;74051;47.120;18.370;2024-01-11T01:18:19;52.67;;;19.02;;
83471;SDS011;74051;47.120;18.370;2024-01-11T01:20:45;51.55;;;21.52;;
83471;SDS011;74051;47.120;18.370;2024-01-11T01:23:12;47.88;;;19.35;;
83471;SDS011;74051;47.120;18.370;2024-01-11T01:25:38;54.85;;;19.42;;
83471;SDS011;74051;47.120;18.370;2024-01-11T01:28:05;47.28;;;21.02;;
83471;SDS011;74051;47.120;18.370;2024-01-11T01:30:31;43.10;;;21.45;;
83471;SDS011;74051;47.120;18.370;2024-01-11T01:32:58;51.20;;;18.42;;
83471;SDS011;74051;47.120;18.370;2024-01-11T01:35:24;51.05;;;20.90;;
83471;SDS011;74051;47.120;18.370;2024-01-11T01:37:50;47.95;;;22.35;;
83471;SDS011;74051;47.120;18.370;2024-01-11T01:40:17;45.35;;;18.45;;
83471;SDS011;74051;47.120;18.370;2024-01-11T01:42:44;44.88;;;18.70;;
83471;SDS011;74051;47.120;18.370;2024-01-11T01:45:12;39.90;;;16.35;;
83471;SDS011;74051;47.120;18.370;2024-01-11T01:47:39;40.85;;;17.00;;
83471;SDS011;74051;47.120;18.370;2024-01-11T01:50:07;46.60;;;18.98;;
83471;SDS011;74051;47.120;18.370;2024-01-11T01:52:35;43.22;;;18.02;;
83471;SDS011;74051;47.120;18.370;2024-01-11T01:55:03;38.13;;;14.32;;
83471;SDS011;74051;47.120;18.370;2024-01-11T01:57:32;36.67;;;16.55;;
83471;SDS011;74051;47.120;18.370;2024-01-11T02:00:00;36.47;;;16.63;;
83471;SDS011;74051;47.120;18.370;2024-01-11T02:02:38;47.00;;;16.30;;
83471;SDS011;74051;47.120;18.370;2024-01-11T02:05:06;39.67;;;17.33;;
83471;SDS011;74051;47.120;18.370;2024-01-11T02:07:33;42.42;;;19.85;;
83471;SDS011;74051;47.120;18.370;2024-01-11T02:10:00;45.88;;;16.80;;
83471;SDS011;74051;47.120;18.370;2024-01-11T02:12:28;29.83;;;14.30;;
83471;SDS011;74051;47.120;18.370;2024-01-11T02:14:55;41.05;;;16.48;;
83471;SDS011;74051;47.120;18.370;2024-01-11T02:17:22;43.10;;;17.00;;
83471;SDS011;74051;47.120;18.370;2024-01-11T02:19:48;41.30;;;16.80;;
83471;SDS011;74051;47.120;18.370;2024-01-11T02:22:18;39.63;;;16.02;;
83471;SDS011;74051;47.120;18.370;2024-01-11T02:24:50;34.03;;;15.98;;
83471;SDS011;74051;47.120;18.370;2024-01-11T02:27:16;41.55;;;17.15;;
83471;SDS011;74051;47.120;18.370;2024-01-11T02:29:43;38.55;;;15.55;;
83471;SDS011;74051;47.120;18.370;2024-01-11T02:32:09;39.55;;;15.40;;
83471;SDS011;74051;47.120;18.370;2024-01-11T02:34:36;40.33;;;17.45;;
83471;SDS011;74051;47.120;18.370;2024-01-11T02:37:03;32.90;;;14.25;;
83471;SDS011;74051;47.120;18.370;2024-01-11T06:56:33;28.45;;;13.40;;
83471;SDS011;74051;47.120;18.370;2024-01-11T07:12:22;32.22;;;15.57;;
83471;SDS011;74051;47.120;18.370;2024-01-11T07:14:48;43.50;;;20.35;;
83471;SDS011;74051;47.120;18.370;2024-01-11T07:17:15;61.50;;;23.92;;
83471;SDS011;74051;47.120;18.370;2024-01-11T07:19:41;48.95;;;21.13;;
83471;SDS011;74051;47.120;18.370;2024-01-11T07:22:08;34.95;;;16.45;;
83471;SDS011;74051;47.120;18.370;2024-01-11T07:24:35;50.25;;;21.13;;
83471;SDS011;74051;47.120;18.370;2024-01-11T07:27:04;50.45;;;21.92;;
83471;SDS011;74051;47.120;18.370;2024-01-11T07:29:31;37.22;;;15.63;;
83471;SDS011;74051;47.120;18.370;2024-01-11T07:31:59;46.17;;;17.48;;
83471;SDS011;74051;47.120;18.370;2024-01-11T07:34:26;61.33;;;29.40;;
83471;SDS011;74051;47.120;18.370;2024-01-11T07:36:53;49.63;;;23.60;;
83471;SDS011;74051;47.120;18.370;2024-01-11T07:39:20;43.63;;;18.77;;
83471;SDS011;74051;47.120;18.370;2024-01-11T07:41:48;62.63;;;27.55;;
83471;SDS011;74051;47.120;18.370;2024-01-11T07:44:16;49.85;;;20.45;;
83471;SDS011;74051;47.120;18.370;2024-01-11T07:46:47;40.20;;;19.23;;
83471;SDS011;74051;47.120;18.370;2024-01-11T07:49:14;35.80;;;17.05;;
83471;SDS011;74051;47.120;18.370;2024-01-11T07:51:42;54.78;;;23.05;;
83471;SDS011;74051;47.120;18.370;2024-01-11T07:54:10;52.00;;;23.55;;
83471;SDS011;74051;47.120;18.370;2024-01-11T07:56:36;48.55;;;21.15;;
83471;SDS011;74051;47.120;18.370;2024-01-11T07:59:02;35.85;;;16.80;;
83471;SDS011;74051;47.120;18.370;2024-01-11T13:16:42;19.85;;;8.63;;
83471;SDS011;74051;47.120;18.370;2024-01-11T13:23:25;17.65;;;8.23;;
83471;SDS011;74051;47.120;18.370;2024-01-11T15:04:12;17.27;;;8.35;;
83471;SDS011;74051;47.120;18.370;2024-01-11T15:06:39;18.60;;;8.45;;
83471;SDS011;74051;47.120;18.370;2024-01-11T21:00:29;21.20;;;9.07;;
83471;SDS011;74051;47.120;18.370;2024-01-11T21:02:56;25.15;;;9.38;;
83471;SDS011;74051;47.120;18.370;2024-01-11T21:05:23;24.45;;;9.80;;
83471;SDS011;74051;47.120;18.370;2024-01-11T21:07:52;21.70;;;8.98;;
83471;SDS011;74051;47.120;18.370;2024-01-11T21:10:19;19.83;;;9.52;;
83471;SDS011;74051;47.120;18.370;2024-01-11T21:12:45;24.88;;;10.65;;
83471;SDS011;74051;47.120;18.370;2024-01-11T21:15:14;20.77;;;9.48;;
83471;SDS011;74051;47.120;18.370;2024-01-11T21:17:41;19.55;;;9.57;;
83471;SDS011;74051;47.120;18.370;2024-01-11T21:20:07;22.92;;;11.43;;
83471;SDS011;74051;47.120;18.370;2024-01-11T21:22:33;19.67;;;9.18;;
83471;SDS011;74051;47.120;18.370;2024-01-11T21:25:00;21.88;;;8.45;;
83471;SDS011;74051;47.120;18.370;2024-01-11T21:27:27;21.45;;;9.98;;
83471;SDS011;74051;47.120;18.370;2024-01-11T21:29:53;20.23;;;8.20;;
83471;SDS011;74051;47.120;18.370;2024-01-11T21:32:20;20.90;;;9.50;;
83471;SDS011;74051;47.120;18.370;2024-01-11T21:34:46;22.35;;;9.73;;
83471;SDS011;74051;47.120;18.370;2024-01-11T21:37:13;20.38;;;8.15;;
83471;SDS011;74051;47.120;18.370;2024-01-11T21:39:39;18.73;;;8.82;;
83471;SDS011;74051;47.120;18.370;2024-01-11T21:42:06;20.98;;;9.68;;
83471;SDS011;74051;47.120;18.370;2024-01-11T21:44:33;20.30;;;9.32;;
83471;SDS011;74051;47.120;18.370;2024-01-11T21:47:00;25.40;;;10.95;;
83471;SDS011;74051;47.120;18.370;2024-01-11T21:49:26;22.92;;;9.07;;
83471;SDS011;74051;47.120;18.370;2024-01-11T21:51:53;24.45;;;10.27;;
83471;SDS011;74051;47.120;18.370;2024-01-11T21:54:19;18.27;;;8.10;;
83471;SDS011;74051;47.120;18.370;2024-01-11T21:56:46;24.50;;;10.27;;
83471;SDS011;74051;47.120;18.370;2024-01-11T21:59:12;18.45;;;8.55;;
83471;SDS011;74051;47.120;18.370;2024-01-11T22:01:42;15.98;;;7.22;;
83471;SDS011;74051;47.120;18.370;2024-01-11T22:04:10;19.63;;;8.80;;
83471;SDS011;74051;47.120;18.370;2024-01-11T22:06:37;20.25;;;9.00;;
83471;SDS011;74051;47.120;18.370;2024-01-11T22:09:03;17.45;;;7.78;;
83471;SDS011;74051;47.120;18.370;2024-01-11T22:11:30;23.33;;;9.43;;
83471;SDS011;74051;47.120;18.370;2024-01-11T22:13:57;21.27;;;9.45;;
83471;SDS011;74051;47.120;18.370;2024-01-11T22:16:24;17.08;;;7.80;;
83471;SDS011;74051;47.120;18.370;2024-01-11T22:18:51;28.63;;;9.30;;
83471;SDS011;74051;47.120;18.370;2024-01-11T22:21:17;23.10;;;10.35;;
83471;SDS011;74051;47.120;18.370;2024-01-11T22:23:43;25.85;;;10.30;;
83471;SDS011;74051;47.120;18.370;2024-01-11T22:26:09;19.92;;;8.32;;
83471;SDS011;74051;47.120;18.370;2024-01-11T22:28:35;21.00;;;8.02;;
83471;SDS011;74051;47.120;18.370;2024-01-11T22:31:02;25.88;;;8.98;;
83471;SDS011;74051;47.120;18.370;2024-01-11T22:33:28;20.02;;;9.48;;
83471;SDS011;74051;47.120;18.370;2024-01-11T22:35:55;19.65;;;8.23;;
83471;SDS011;74051;47.120;18.370;2024-01-11T22:38:21;19.75;;;9.68;;
83471;SDS011;74051;47.120;18.370;2024-01-11T22:40:47;20.13;;;9.10;;
83471;SDS011;74051;47.120;18.370;2024-01-11T22:43:15;19.52;;;8.80;;
83471;SDS011;74051;47.120;18.370;2024-01-11T22:45:41;18.20;;;8.43;;
83471;SDS011;74051;47.120;18.370;2024-01-11T22:48:07;19.05;;;8.73;;
83471;SDS011;74051;47.120;18.370;2024-01-11T22:50:34;18.08;;;7.88;;
83471;SDS011;74051;47.120;18.370;2024-01-11T22:53:00;19.15;;;8.45;;
83471;SDS011;74051;47.120;18.370;2024-01-11T22:55:26;19.50;;;9.32;;
83471;SDS011;74051;47.120;18.370;2024-01-11T22:57:53;16.58;;;7.93;;
83471;SDS011;74051;47.120;18.370;2024-01-11T23:00:19;19.20;;;8.63;;
83471;SDS011;74051;47.120;18.370;2024-01-11T23:02:51;17.27;;;7.60;;
83471;SDS011;74051;47.120;18.370;2024-01-11T23:05:18;19.42;;;7.70;;
83471;SDS011;74051;47.120;18.370;2024-01-11T23:07:45;23.38;;;8.95;;
83471;SDS011;74051;47.120;18.370;2024-01-11T23:10:12;18.73;;;8.88;;
83471;SDS011;74051;47.120;18.370;2024-01-11T23:12:39;23.02;;;8.40;;
83471;SDS011;74051;47.120;18.370;2024-01-11T23:15:06;18.88;;;8.05;;
83471;SDS011;74051;47.120;18.370;2024-01-11T23:17:33;21.40;;;8.85;;
83471;SDS011;74051;47.120;18.370;2024-01-11T23:20:00;22.15;;;9.52;;
83471;SDS011;74051;47.120;18.370;2024-01-11T23:22:29;16.40;;;6.85;;
83471;SDS011;74051;47.120;18.370;2024-01-11T23:24:56;18.75;;;8.15;;
83471;SDS011;74051;47.120;18.370;2024-01-11T23:27:22;22.75;;;9.60;;
83471;SDS011;74051;47.120;18.370;2024-01-11T23:29:49;19.35;;;8.93;;
83471;SDS011;74051;47.120;18.370;2024-01-11T23:32:16;22.00;;;9.60;;
83471;SDS011;74051;47.120;18.370;2024-01-11T23:34:42;18.30;;;8.27;;
83471;SDS011;74051;47.120;18.370;2024-01-11T23:37:08;22.23;;;9.48;;
83471;SDS011;74051;47.120;18.370;2024-01-11T23:39:35;24.30;;;8.27;;
83471;SDS011;74051;47.120;18.370;2024-01-11T23:42:01;19.80;;;9.32;;
83471;SDS011;74051;47.120;18.370;2024-01-11T23:44:28;21.60;;;8.38;;
83471;SDS011;74051;47.120;18.370;2024-01-11T23:46:55;21.00;;;8.77;;
83471;SDS011;74051;47.120;18.370;2024-01-11T23:49:21;22.20;;;9.05;;
83471;SDS011;74051;47.120;18.370;2024-01-11T23:51:47;21.50;;;8.55;;
83471;SDS011;74051;47.120;18.370;2024-01-11T23:54:14;19.60;;;9.25;;
83471;SDS011;74051;47.120;18.370;2024-01-11T23:56:40;23.85;;;9.35;;
83471;SDS011;74051;47.120;18.370;2024-01-11T23:59:10;20.00;;;9.35;;
